sensor_id;sensor_type;location;lat;lon;timestamp;pressure;altitude;pressure_sealevel;temperature;humidity
40872;BME280;26591;43.264;26.940;2023-04-27T00:02:21;98456.50;;;9.12;65.82
40872;BME280;26591;43.264;26.940;2023-04-27T00:04:47;98468.25;;;9.01;66.25
40872;BME280;26591;43.264;26.940;2023-04-27T00:07:12;98463.03;;;8.85;66.57
40872;BME280;26591;43.264;26.940;2023-04-27T00:09:38;98468.09;;;8.95;65.94
40872;BME280;26591;43.264;26.940;2023-04-27T00:12:03;98460.22;;;8.87;66.49
40872;BME280;26591;43.264;26.940;2023-04-27T00:14:30;98473.91;;;8.90;66.31
40872;BME280;26591;43.264;26.940;2023-04-27T00:16:55;98476.06;;;8.87;65.84
40872;BME280;26591;43.264;26.940;2023-04-27T00:19:21;98475.72;;;8.81;66.12
40872;BME280;26591;43.264;26.940;2023-04-27T00:21:47;98477.34;;;8.91;65.65
40872;BME280;26591;43.264;26.940;2023-04-27T00:24:12;98484.16;;;8.68;66.58
40872;BME280;26591;43.264;26.940;2023-04-27T00:26:38;98490.41;;;8.84;65.65
40872;BME280;26591;43.264;26.940;2023-04-27T00:29:03;98483.97;;;8.87;65.89
40872;BME280;26591;43.264;26.940;2023-04-27T00:31:29;98488.09;;;8.89;65.33
40872;BME280;26591;43.264;26.940;2023-04-27T00:33:54;98476.22;;;8.93;64.90
40872;BME280;26591;43.264;26.940;2023-04-27T00:36:20;98493.03;;;8.84;64.94
40872;BME280;26591;43.264;26.940;2023-04-27T00:38:45;98494.88;;;8.75;64.69
40872;BME280;26591;43.264;26.940;2023-04-27T00:41:11;98498.53;;;8.74;65.14
40872;BME280;26591;43.264;26.940;2023-04-27T00:43:43;98501.47;;;8.79;64.88
40872;BME280;26591;43.264;26.940;2023-04-27T00:46:16;98502.16;;;8.73;64.87
40872;BME280;26591;43.264;26.940;2023-04-27T00:48:42;98505.94;;;8.79;63.91
40872;BME280;26591;43.264;26.940;2023-04-27T00:51:09;98509.41;;;8.71;64.51
40872;BME280;26591;43.264;26.940;2023-04-27T00:53:35;98512.19;;;8.69;64.24
40872;BME280;26591;43.264;26.940;2023-04-27T00:56:01;98512.38;;;8.68;63.64
40872;BME280;26591;43.264;26.940;2023-04-27T00:58:27;98505.13;;;8.53;64.24
40872;BME280;26591;43.264;26.940;2023-04-27T01:00:53;98505.63;;;8.49;64.46
40872;BME280;26591;43.264;26.940;2023-04-27T01:03:18;98508.91;;;8.67;63.82
40872;BME280;26591;43.264;26.940;2023-04-27T01:05:44;98512.19;;;8.53;64.18
40872;BME280;26591;43.264;26.940;2023-04-27T01:08:09;98510.06;;;8.57;64.72
40872;BME280;26591;43.264;26.940;2023-04-27T01:10:35;98515.00;;;8.68;64.51
40872;BME280;26591;43.264;26.940;2023-04-27T01:13:03;98514.34;;;8.74;63.96
40872;BME280;26591;43.264;26.940;2023-04-27T01:15:29;98521.22;;;8.92;64.17
40872;BME280;26591;43.264;26.940;2023-04-27T01:18:01;98514.00;;;8.69;64.21
40872;BME280;26591;43.264;26.940;2023-04-27T01:20:27;98528.69;;;8.72;64.67
40872;BME280;26591;43.264;26.940;2023-04-27T01:22:58;98523.88;;;8.83;63.97
40872;BME280;26591;43.264;26.940;2023-04-27T01:25:24;98537.94;;;8.67;64.22
40872;BME280;26591;43.264;26.940;2023-04-27T01:27:49;98536.97;;;8.52;64.28
40872;BME280;26591;43.264;26.940;2023-04-27T01:30:15;98539.41;;;8.53;64.50
40872;BME280;26591;43.264;26.940;2023-04-27T01:32:40;98537.25;;;8.82;64.42
40872;BME280;26591;43.264;26.940;2023-04-27T01:35:06;98541.03;;;8.63;64.86
40872;BME280;26591;43.264;26.940;2023-04-27T01:37:32;98541.38;;;8.84;64.17
40872;BME280;26591;43.264;26.940;2023-04-27T01:39:58;98539.53;;;8.85;64.14
40872;BME280;26591;43.264;26.940;2023-04-27T01:42:23;98537.44;;;8.72;63.80
40872;BME280;26591;43.264;26.940;2023-04-27T01:44:49;98546.13;;;8.39;64.10
40872;BME280;26591;43.264;26.940;2023-04-27T01:47:14;98546.47;;;8.36;63.92
40872;BME280;26591;43.264;26.940;2023-04-27T01:49:41;98561.63;;;8.34;64.61
40872;BME280;26591;43.264;26.940;2023-04-27T01:52:07;98562.84;;;8.57;63.91
40872;BME280;26591;43.264;26.940;2023-04-27T01:54:35;98572.50;;;8.39;63.63
40872;BME280;26591;43.264;26.940;2023-04-27T01:57:03;98559.97;;;8.42;63.87
40872;BME280;26591;43.264;26.940;2023-04-27T01:59:28;98560.31;;;8.30;64.26
40872;BME280;26591;43.264;26.940;2023-04-27T02:01:54;98567.38;;;8.21;64.26
40872;BME280;26591;43.264;26.940;2023-04-27T02:04:20;98567.88;;;8.33;64.51
40872;BME280;26591;43.264;26.940;2023-04-27T02:06:46;98576.44;;;8.27;64.33
40872;BME280;26591;43.264;26.940;2023-04-27T02:09:12;98574.03;;;8.50;63.90
40872;BME280;26591;43.264;26.940;2023-04-27T02:11:37;98584.25;;;8.53;64.42
40872;BME280;26591;43.264;26.940;2023-04-27T02:14:03;98584.44;;;8.52;64.44
40872;BME280;26591;43.264;26.940;2023-04-27T02:16:28;98588.53;;;8.63;64.19
40872;BME280;26591;43.264;26.940;2023-04-27T02:18:54;98590.00;;;8.57;64.52
40872;BME280;26591;43.264;26.940;2023-04-27T02:21:20;98587.88;;;8.61;63.76
40872;BME280;26591;43.264;26.940;2023-04-27T02:23:46;98593.50;;;8.82;63.54
40872;BME280;26591;43.264;26.940;2023-04-27T02:26:18;98596.94;;;8.75;63.10
40872;BME280;26591;43.264;26.940;2023-04-27T02:28:45;98599.41;;;8.51;64.11
40872;BME280;26591;43.264;26.940;2023-04-27T02:31:12;98598.63;;;8.67;63.42
40872;BME280;26591;43.264;26.940;2023-04-27T02:33:41;98602.38;;;8.90;63.11
40872;BME280;26591;43.264;26.940;2023-04-27T02:36:07;98604.38;;;8.71;62.53
40872;BME280;26591;43.264;26.940;2023-04-27T02:38:33;98613.59;;;8.92;62.24
40872;BME280;26591;43.264;26.940;2023-04-27T02:40:59;98618.22;;;8.90;63.18
40872;BME280;26591;43.264;26.940;2023-04-27T02:43:24;98617.41;;;8.89;62.73
40872;BME280;26591;43.264;26.940;2023-04-27T02:45:50;98618.06;;;8.66;63.14
40872;BME280;26591;43.264;26.940;2023-04-27T02:48:15;98623.97;;;8.68;62.92
40872;BME280;26591;43.264;26.940;2023-04-27T02:50:42;98625.91;;;8.42;63.99
40872;BME280;26591;43.264;26.940;2023-04-27T02:53:09;98636.34;;;8.68;63.21
40872;BME280;26591;43.264;26.940;2023-04-27T02:55:35;98630.91;;;8.86;62.87
40872;BME280;26591;43.264;26.940;2023-04-27T02:58:00;98634.88;;;8.98;62.70
40872;BME280;26591;43.264;26.940;2023-04-27T03:00:26;98633.06;;;8.91;63.46
40872;BME280;26591;43.264;26.940;2023-04-27T03:02:52;98641.81;;;8.66;64.89
40872;BME280;26591;43.264;26.940;2023-04-27T03:05:17;98642.44;;;8.52;65.06
40872;BME280;26591;43.264;26.940;2023-04-27T03:07:43;98653.31;;;8.57;65.71
40872;BME280;26591;43.264;26.940;2023-04-27T03:10:08;98644.41;;;8.50;66.01
40872;BME280;26591;43.264;26.940;2023-04-27T03:12:34;98653.50;;;8.80;65.35
40872;BME280;26591;43.264;26.940;2023-04-27T03:14:59;98649.03;;;8.56;66.76
40872;BME280;26591;43.264;26.940;2023-04-27T03:17:26;98651.50;;;8.49;67.04
40872;BME280;26591;43.264;26.940;2023-04-27T03:19:51;98654.97;;;8.58;67.26
40872;BME280;26591;43.264;26.940;2023-04-27T03:22:17;98663.22;;;8.63;67.02
40872;BME280;26591;43.264;26.940;2023-04-27T03:24:42;98648.31;;;8.37;68.32
40872;BME280;26591;43.264;26.940;2023-04-27T03:27:08;98656.28;;;8.54;67.54
40872;BME280;26591;43.264;26.940;2023-04-27T03:29:34;98659.09;;;8.52;68.68
40872;BME280;26591;43.264;26.940;2023-04-27T03:31:59;98661.81;;;8.34;69.46
40872;BME280;26591;43.264;26.940;2023-04-27T03:34:25;98663.97;;;8.39;69.81
40872;BME280;26591;43.264;26.940;2023-04-27T03:36:50;98660.97;;;8.34;70.15
40872;BME280;26591;43.264;26.940;2023-04-27T03:39:16;98663.44;;;8.19;70.23
40872;BME280;26591;43.264;26.940;2023-04-27T03:41:41;98670.38;;;8.28;71.62
40872;BME280;26591;43.264;26.940;2023-04-27T03:44:07;98663.88;;;8.06;71.19
40872;BME280;26591;43.264;26.940;2023-04-27T03:46:33;98671.03;;;8.30;71.25
40872;BME280;26591;43.264;26.940;2023-04-27T03:48:58;98666.38;;;8.07;72.00
40872;BME280;26591;43.264;26.940;2023-04-27T03:51:24;98676.53;;;8.02;72.52
40872;BME280;26591;43.264;26.940;2023-04-27T03:53:49;98673.53;;;7.97;72.48
40872;BME280;26591;43.264;26.940;2023-04-27T03:56:15;98668.75;;;7.92;73.62
40872;BME280;26591;43.264;26.940;2023-04-27T03:58:40;98679.50;;;7.99;73.56
40872;BME280;26591;43.264;26.940;2023-04-27T04:01:06;98688.16;;;7.83;74.19
40872;BME280;26591;43.264;26.940;2023-04-27T04:03:35;98682.88;;;7.83;74.43
40872;BME280;26591;43.264;26.940;2023-04-27T04:06:00;98684.97;;;7.71;73.68
40872;BME280;26591;43.264;26.940;2023-04-27T04:08:28;98687.59;;;7.71;74.41
40872;BME280;26591;43.264;26.940;2023-04-27T04:10:55;98688.19;;;7.65;74.34
40872;BME280;26591;43.264;26.940;2023-04-27T04:13:21;98690.63;;;7.58;74.09
40872;BME280;26591;43.264;26.940;2023-04-27T04:15:46;98696.88;;;7.57;74.32
40872;BME280;26591;43.264;26.940;2023-04-27T04:18:11;98696.69;;;7.51;75.51
40872;BME280;26591;43.264;26.940;2023-04-27T04:20:37;98690.69;;;7.67;74.26
40872;BME280;26591;43.264;26.940;2023-04-27T04:23:02;98697.41;;;7.61;74.35
40872;BME280;26591;43.264;26.940;2023-04-27T04:25:28;98698.28;;;7.70;75.09
40872;BME280;26591;43.264;26.940;2023-04-27T04:27:53;98696.25;;;7.90;74.30
40872;BME280;26591;43.264;26.940;2023-04-27T04:30:19;98698.16;;;7.79;74.45
40872;BME280;26591;43.264;26.940;2023-04-27T04:32:44;98696.88;;;7.84;74.70
40872;BME280;26591;43.264;26.940;2023-04-27T04:35:10;98702.19;;;7.92;73.61
40872;BME280;26591;43.264;26.940;2023-04-27T04:37:36;98693.38;;;7.75;74.40
40872;BME280;26591;43.264;26.940;2023-04-27T04:40:05;98705.81;;;7.91;73.73
40872;BME280;26591;43.264;26.940;2023-04-27T04:42:37;98695.97;;;8.01;73.37
40872;BME280;26591;43.264;26.940;2023-04-27T04:45:04;98697.03;;;8.17;73.53
40872;BME280;26591;43.264;26.940;2023-04-27T04:47:29;98706.78;;;8.33;72.97
40872;BME280;26591;43.264;26.940;2023-04-27T04:49:57;98699.38;;;8.28;72.64
40872;BME280;26591;43.264;26.940;2023-04-27T04:52:22;98699.00;;;8.15;71.88
40872;BME280;26591;43.264;26.940;2023-04-27T04:54:51;98700.47;;;8.17;71.96
40872;BME280;26591;43.264;26.940;2023-04-27T04:57:20;98701.69;;;8.23;72.13
40872;BME280;26591;43.264;26.940;2023-04-27T04:59:46;98702.50;;;8.23;72.01
40872;BME280;26591;43.264;26.940;2023-04-27T05:02:11;98714.88;;;8.39;70.42
40872;BME280;26591;43.264;26.940;2023-04-27T05:04:37;98708.72;;;8.49;70.66
40872;BME280;26591;43.264;26.940;2023-04-27T05:07:02;98713.38;;;8.80;71.57
40872;BME280;26591;43.264;26.940;2023-04-27T05:09:30;98714.03;;;8.74;70.08
40872;BME280;26591;43.264;26.940;2023-04-27T05:11:56;98722.22;;;8.54;69.08
40872;BME280;26591;43.264;26.940;2023-04-27T05:14:21;98724.22;;;8.68;69.08
40872;BME280;26591;43.264;26.940;2023-04-27T05:16:46;98716.00;;;8.63;70.10
40872;BME280;26591;43.264;26.940;2023-04-27T05:19:13;98722.09;;;8.64;69.56
40872;BME280;26591;43.264;26.940;2023-04-27T05:21:43;98720.31;;;8.81;69.24
40872;BME280;26591;43.264;26.940;2023-04-27T05:24:10;98722.00;;;9.07;68.51
40872;BME280;26591;43.264;26.940;2023-04-27T05:26:37;98727.59;;;9.12;70.24
40872;BME280;26591;43.264;26.940;2023-04-27T05:29:02;98733.16;;;9.75;68.17
40872;BME280;26591;43.264;26.940;2023-04-27T05:31:28;98737.19;;;10.19;67.09
40872;BME280;26591;43.264;26.940;2023-04-27T05:33:53;98732.06;;;10.17;64.25
40872;BME280;26591;43.264;26.940;2023-04-27T05:36:19;98736.91;;;10.05;64.71
40872;BME280;26591;43.264;26.940;2023-04-27T05:38:44;98742.28;;;10.20;64.92
40872;BME280;26591;43.264;26.940;2023-04-27T05:41:10;98743.88;;;10.78;65.67
40872;BME280;26591;43.264;26.940;2023-04-27T05:43:35;98750.75;;;10.87;61.24
40872;BME280;26591;43.264;26.940;2023-04-27T05:46:03;98752.53;;;10.15;60.97
40872;BME280;26591;43.264;26.940;2023-04-27T05:48:29;98752.28;;;9.93;61.49
40872;BME280;26591;43.264;26.940;2023-04-27T05:51:03;98743.38;;;9.95;62.17
40872;BME280;26591;43.264;26.940;2023-04-27T05:53:29;98752.28;;;9.85;62.72
40872;BME280;26591;43.264;26.940;2023-04-27T05:55:55;98755.63;;;9.79;62.97
40872;BME280;26591;43.264;26.940;2023-04-27T05:58:23;98744.56;;;9.67;62.42
40872;BME280;26591;43.264;26.940;2023-04-27T06:00:48;98755.66;;;9.38;62.44
40872;BME280;26591;43.264;26.940;2023-04-27T06:03:14;98748.72;;;9.61;63.05
40872;BME280;26591;43.264;26.940;2023-04-27T06:05:40;98759.31;;;9.37;62.51
40872;BME280;26591;43.264;26.940;2023-04-27T06:08:06;98763.44;;;10.20;67.62
40872;BME280;26591;43.264;26.940;2023-04-27T06:10:31;98755.19;;;10.15;60.75
40872;BME280;26591;43.264;26.940;2023-04-27T06:12:57;98754.16;;;9.52;61.21
40872;BME280;26591;43.264;26.940;2023-04-27T06:15:22;98742.91;;;9.91;61.31
40872;BME280;26591;43.264;26.940;2023-04-27T06:17:48;98754.66;;;9.30;60.75
40872;BME280;26591;43.264;26.940;2023-04-27T06:20:13;98748.38;;;9.56;60.43
40872;BME280;26591;43.264;26.940;2023-04-27T06:22:39;98754.34;;;9.50;59.58
40872;BME280;26591;43.264;26.940;2023-04-27T06:25:05;98754.34;;;9.25;59.45
40872;BME280;26591;43.264;26.940;2023-04-27T06:27:31;98759.13;;;9.22;60.31
40872;BME280;26591;43.264;26.940;2023-04-27T06:29:57;98757.47;;;9.45;60.72
40872;BME280;26591;43.264;26.940;2023-04-27T06:32:23;98751.38;;;9.37;61.21
40872;BME280;26591;43.264;26.940;2023-04-27T06:34:49;98750.53;;;9.53;59.68
40872;BME280;26591;43.264;26.940;2023-04-27T06:37:14;98742.59;;;9.20;58.55
40872;BME280;26591;43.264;26.940;2023-04-27T06:39:44;98758.47;;;9.53;59.52
40872;BME280;26591;43.264;26.940;2023-04-27T06:42:09;98757.97;;;9.24;58.08
40872;BME280;26591;43.264;26.940;2023-04-27T06:44:35;98754.34;;;9.17;58.98
40872;BME280;26591;43.264;26.940;2023-04-27T06:47:01;98769.19;;;9.18;58.76
40872;BME280;26591;43.264;26.940;2023-04-27T06:49:26;98759.78;;;9.24;58.19
40872;BME280;26591;43.264;26.940;2023-04-27T06:51:52;98759.28;;;9.45;58.69
40872;BME280;26591;43.264;26.940;2023-04-27T06:54:18;98755.50;;;9.56;58.49
40872;BME280;26591;43.264;26.940;2023-04-27T06:56:43;98765.19;;;9.72;58.96
40872;BME280;26591;43.264;26.940;2023-04-27T06:59:09;98771.44;;;10.04;58.82
40872;BME280;26591;43.264;26.940;2023-04-27T07:01:36;98766.69;;;9.91;58.08
40872;BME280;26591;43.264;26.940;2023-04-27T07:04:05;98763.19;;;9.90;58.23
40872;BME280;26591;43.264;26.940;2023-04-27T07:06:31;98766.78;;;10.14;58.15
40872;BME280;26591;43.264;26.940;2023-04-27T07:08:57;98766.91;;;10.29;57.44
40872;BME280;26591;43.264;26.940;2023-04-27T07:11:23;98772.31;;;10.44;57.43
40872;BME280;26591;43.264;26.940;2023-04-27T07:13:49;98775.75;;;10.53;57.83
40872;BME280;26591;43.264;26.940;2023-04-27T07:16:15;98766.75;;;10.71;57.10
40872;BME280;26591;43.264;26.940;2023-04-27T07:18:40;98771.22;;;10.70;56.91
40872;BME280;26591;43.264;26.940;2023-04-27T07:21:06;98773.97;;;11.08;56.11
40872;BME280;26591;43.264;26.940;2023-04-27T07:23:31;98778.31;;;11.01;55.57
40872;BME280;26591;43.264;26.940;2023-04-27T07:25:57;98766.25;;;11.22;56.56
40872;BME280;26591;43.264;26.940;2023-04-27T07:28:23;98769.19;;;11.04;54.38
40872;BME280;26591;43.264;26.940;2023-04-27T07:30:49;98762.44;;;11.01;53.46
40872;BME280;26591;43.264;26.940;2023-04-27T07:33:15;98772.09;;;11.17;53.71
40872;BME280;26591;43.264;26.940;2023-04-27T07:35:40;98770.97;;;11.35;52.23
40872;BME280;26591;43.264;26.940;2023-04-27T07:38:06;98779.00;;;10.95;51.92
40872;BME280;26591;43.264;26.940;2023-04-27T07:40:32;98768.03;;;11.29;51.61
40872;BME280;26591;43.264;26.940;2023-04-27T07:42:58;98774.72;;;11.17;51.60
40872;BME280;26591;43.264;26.940;2023-04-27T07:45:24;98771.97;;;11.10;52.06
40872;BME280;26591;43.264;26.940;2023-04-27T07:47:56;98765.03;;;11.33;52.01
40872;BME280;26591;43.264;26.940;2023-04-27T07:50:24;98778.06;;;11.96;51.79
40872;BME280;26591;43.264;26.940;2023-04-27T07:52:52;98771.59;;;11.98;51.30
40872;BME280;26591;43.264;26.940;2023-04-27T07:55:18;98768.81;;;12.36;51.04
40872;BME280;26591;43.264;26.940;2023-04-27T07:57:43;98775.41;;;12.41;50.44
40872;BME280;26591;43.264;26.940;2023-04-27T08:00:09;98770.22;;;12.84;50.57
40872;BME280;26591;43.264;26.940;2023-04-27T08:02:35;98769.47;;;12.90;48.80
40872;BME280;26591;43.264;26.940;2023-04-27T08:05:01;98769.13;;;12.93;49.23
40872;BME280;26591;43.264;26.940;2023-04-27T08:07:27;98775.31;;;13.01;48.24
40872;BME280;26591;43.264;26.940;2023-04-27T08:09:52;98772.50;;;13.09;49.26
40872;BME280;26591;43.264;26.940;2023-04-27T08:12:18;98767.31;;;12.79;48.64
40872;BME280;26591;43.264;26.940;2023-04-27T08:14:44;98775.94;;;12.66;48.31
40872;BME280;26591;43.264;26.940;2023-04-27T08:17:10;98767.28;;;13.16;48.48
40872;BME280;26591;43.264;26.940;2023-04-27T08:19:36;98776.66;;;12.75;48.08
40872;BME280;26591;43.264;26.940;2023-04-27T08:22:01;98783.59;;;13.12;48.13
40872;BME280;26591;43.264;26.940;2023-04-27T08:24:46;98777.03;;;13.52;46.58
40872;BME280;26591;43.264;26.940;2023-04-27T08:27:12;98785.66;;;13.54;47.83
40872;BME280;26591;43.264;26.940;2023-04-27T08:29:37;98777.41;;;13.49;45.35
40872;BME280;26591;43.264;26.940;2023-04-27T08:32:04;98785.56;;;13.69;45.47
40872;BME280;26591;43.264;26.940;2023-04-27T08:34:29;98787.25;;;13.77;45.43
40872;BME280;26591;43.264;26.940;2023-04-27T08:36:55;98783.84;;;13.83;45.55
40872;BME280;26591;43.264;26.940;2023-04-27T08:39:22;98775.41;;;14.08;45.07
40872;BME280;26591;43.264;26.940;2023-04-27T08:41:47;98774.66;;;14.21;44.83
40872;BME280;26591;43.264;26.940;2023-04-27T08:44:13;98783.06;;;14.59;44.64
40872;BME280;26591;43.264;26.940;2023-04-27T08:46:40;98787.53;;;14.17;44.97
40872;BME280;26591;43.264;26.940;2023-04-27T08:49:05;98783.16;;;14.02;44.44
40872;BME280;26591;43.264;26.940;2023-04-27T08:51:34;98777.88;;;14.09;44.22
40872;BME280;26591;43.264;26.940;2023-04-27T08:53:59;98784.47;;;14.20;44.61
40872;BME280;26591;43.264;26.940;2023-04-27T08:56:27;98778.78;;;14.30;43.40
40872;BME280;26591;43.264;26.940;2023-04-27T08:58:54;98777.81;;;14.38;43.85
40872;BME280;26591;43.264;26.940;2023-04-27T09:01:21;98780.47;;;13.96;44.20
40872;BME280;26591;43.264;26.940;2023-04-27T09:03:48;98783.94;;;13.96;43.29
40872;BME280;26591;43.264;26.940;2023-04-27T09:06:31;98772.34;;;14.11;43.66
40872;BME280;26591;43.264;26.940;2023-04-27T09:08:57;98774.66;;;14.21;44.10
40872;BME280;26591;43.264;26.940;2023-04-27T09:11:33;98770.56;;;14.18;44.00
40872;BME280;26591;43.264;26.940;2023-04-27T09:14:00;98770.34;;;14.55;44.40
40872;BME280;26591;43.264;26.940;2023-04-27T09:16:28;98774.97;;;14.94;43.60
40872;BME280;26591;43.264;26.940;2023-04-27T09:18:56;98774.59;;;14.98;43.04
40872;BME280;26591;43.264;26.940;2023-04-27T09:21:27;98777.66;;;14.94;43.11
40872;BME280;26591;43.264;26.940;2023-04-27T09:23:53;98778.88;;;14.92;43.62
40872;BME280;26591;43.264;26.940;2023-04-27T09:26:24;98768.06;;;14.52;43.78
40872;BME280;26591;43.264;26.940;2023-04-27T09:28:54;98761.75;;;14.66;43.16
40872;BME280;26591;43.264;26.940;2023-04-27T09:31:33;98773.31;;;14.80;44.18
40872;BME280;26591;43.264;26.940;2023-04-27T09:33:59;98768.00;;;14.87;44.26
40872;BME280;26591;43.264;26.940;2023-04-27T09:36:25;98770.34;;;15.30;43.98
40872;BME280;26591;43.264;26.940;2023-04-27T09:38:51;98766.88;;;15.36;43.86
40872;BME280;26591;43.264;26.940;2023-04-27T09:41:18;98772.78;;;15.18;43.48
40872;BME280;26591;43.264;26.940;2023-04-27T09:43:44;98765.22;;;14.60;45.01
40872;BME280;26591;43.264;26.940;2023-04-27T09:46:13;98760.19;;;13.66;46.11
40872;BME280;26591;43.264;26.940;2023-04-27T09:48:40;98773.53;;;13.45;46.99
40872;BME280;26591;43.264;26.940;2023-04-27T09:51:06;98770.25;;;13.27;47.61
40872;BME280;26591;43.264;26.940;2023-04-27T09:53:43;98774.75;;;13.27;46.94
40872;BME280;26591;43.264;26.940;2023-04-27T10:01:50;98770.50;;;13.11;48.42
40872;BME280;26591;43.264;26.940;2023-04-27T10:04:53;98758.59;;;12.85;48.82
40872;BME280;26591;43.264;26.940;2023-04-27T10:07:19;98760.69;;;12.90;49.42
40872;BME280;26591;43.264;26.940;2023-04-27T10:09:47;98768.34;;;12.63;49.62
40872;BME280;26591;43.264;26.940;2023-04-27T10:12:19;98766.78;;;12.69;50.24
40872;BME280;26591;43.264;26.940;2023-04-27T10:14:55;98770.44;;;13.04;50.08
40872;BME280;26591;43.264;26.940;2023-04-27T10:17:33;98766.72;;;13.20;48.93
40872;BME280;26591;43.264;26.940;2023-04-27T10:20:03;98772.31;;;12.89;48.98
40872;BME280;26591;43.264;26.940;2023-04-27T10:22:42;98776.38;;;12.85;49.77
40872;BME280;26591;43.264;26.940;2023-04-27T10:25:38;98781.25;;;13.03;49.17
40872;BME280;26591;43.264;26.940;2023-04-27T10:28:06;98782.13;;;13.10;49.31
40872;BME280;26591;43.264;26.940;2023-04-27T10:30:37;98782.41;;;12.93;49.45
40872;BME280;26591;43.264;26.940;2023-04-27T10:33:04;98781.53;;;13.08;49.20
40872;BME280;26591;43.264;26.940;2023-04-27T10:35:38;98784.53;;;13.26;49.21
40872;BME280;26591;43.264;26.940;2023-04-27T10:38:27;98787.50;;;13.17;49.32
40872;BME280;26591;43.264;26.940;2023-04-27T10:40:56;98790.88;;;13.25;49.41
40872;BME280;26591;43.264;26.940;2023-04-27T10:43:26;98788.53;;;13.37;48.18
40872;BME280;26591;43.264;26.940;2023-04-27T10:45:52;98779.19;;;12.83;49.25
40872;BME280;26591;43.264;26.940;2023-04-27T10:48:18;98783.78;;;12.89;50.13
40872;BME280;26591;43.264;26.940;2023-04-27T10:50:43;98791.78;;;13.33;49.25
40872;BME280;26591;43.264;26.940;2023-04-27T10:53:09;98779.91;;;13.50;49.08
40872;BME280;26591;43.264;26.940;2023-04-27T10:55:35;98785.72;;;13.61;48.60
40872;BME280;26591;43.264;26.940;2023-04-27T10:58:01;98788.94;;;13.84;48.79
40872;BME280;26591;43.264;26.940;2023-04-27T11:00:38;98787.41;;;13.68;47.91
40872;BME280;26591;43.264;26.940;2023-04-27T11:03:17;98779.03;;;14.00;48.21
40872;BME280;26591;43.264;26.940;2023-04-27T11:05:45;98781.94;;;14.40;47.19
40872;BME280;26591;43.264;26.940;2023-04-27T11:08:13;98776.75;;;14.32;46.74
40872;BME280;26591;43.264;26.940;2023-04-27T11:10:47;98783.59;;;14.06;47.51
40872;BME280;26591;43.264;26.940;2023-04-27T11:13:21;98786.16;;;13.93;47.65
40872;BME280;26591;43.264;26.940;2023-04-27T11:18:19;98785.28;;;14.14;48.57
40872;BME280;26591;43.264;26.940;2023-04-27T11:20:48;98785.28;;;14.14;49.24
40872;BME280;26591;43.264;26.940;2023-04-27T11:23:30;98790.28;;;14.30;47.91
40872;BME280;26591;43.264;26.940;2023-04-27T11:28:35;98785.78;;;13.46;49.53
40872;BME280;26591;43.264;26.940;2023-04-27T11:31:01;98782.56;;;13.50;49.39
40872;BME280;26591;43.264;26.940;2023-04-27T11:33:29;98785.69;;;13.39;49.44
40872;BME280;26591;43.264;26.940;2023-04-27T11:35:55;98785.97;;;13.44;49.23
40872;BME280;26591;43.264;26.940;2023-04-27T11:38:21;98796.13;;;13.19;49.29
40872;BME280;26591;43.264;26.940;2023-04-27T11:43:26;98794.88;;;13.15;49.35
40872;BME280;26591;43.264;26.940;2023-04-27T11:45:51;98788.91;;;13.12;49.10
40872;BME280;26591;43.264;26.940;2023-04-27T11:48:18;98794.84;;;12.93;49.23
40872;BME280;26591;43.264;26.940;2023-04-27T11:50:47;98792.91;;;12.87;49.88
40872;BME280;26591;43.264;26.940;2023-04-27T11:53:13;98800.28;;;12.85;50.60
40872;BME280;26591;43.264;26.940;2023-04-27T11:55:39;98791.22;;;13.16;50.16
40872;BME280;26591;43.264;26.940;2023-04-27T11:58:12;98807.31;;;13.14;50.52
40872;BME280;26591;43.264;26.940;2023-04-27T12:00:38;98799.47;;;13.06;50.10
40872;BME280;26591;43.264;26.940;2023-04-27T12:03:04;98799.56;;;13.12;50.67
40872;BME280;26591;43.264;26.940;2023-04-27T12:05:29;98812.75;;;13.42;50.48
40872;BME280;26591;43.264;26.940;2023-04-27T12:07:55;98804.38;;;13.46;51.01
40872;BME280;26591;43.264;26.940;2023-04-27T12:10:21;98804.31;;;13.02;50.89
40872;BME280;26591;43.264;26.940;2023-04-27T12:12:46;98806.44;;;13.07;51.18
40872;BME280;26591;43.264;26.940;2023-04-27T12:15:12;98813.47;;;13.15;50.71
40872;BME280;26591;43.264;26.940;2023-04-27T12:17:38;98806.88;;;13.32;50.51
40872;BME280;26591;43.264;26.940;2023-04-27T12:20:05;98812.19;;;13.47;50.55
40872;BME280;26591;43.264;26.940;2023-04-27T12:22:30;98810.75;;;13.30;51.80
40872;BME280;26591;43.264;26.940;2023-04-27T12:25:21;98807.72;;;13.33;51.33
40872;BME280;26591;43.264;26.940;2023-04-27T12:27:46;98805.47;;;13.51;50.99
40872;BME280;26591;43.264;26.940;2023-04-27T12:30:13;98804.28;;;13.82;50.84
40872;BME280;26591;43.264;26.940;2023-04-27T12:32:39;98804.16;;;13.91;49.91
40872;BME280;26591;43.264;26.940;2023-04-27T12:35:06;98801.38;;;13.77;50.18
40872;BME280;26591;43.264;26.940;2023-04-27T12:37:32;98807.72;;;14.04;49.68
40872;BME280;26591;43.264;26.940;2023-04-27T12:39:57;98802.78;;;14.37;49.62
40872;BME280;26591;43.264;26.940;2023-04-27T12:42:23;98797.34;;;14.52;48.89
40872;BME280;26591;43.264;26.940;2023-04-27T12:44:49;98796.75;;;14.56;49.06
40872;BME280;26591;43.264;26.940;2023-04-27T12:47:16;98798.94;;;14.39;48.38
40872;BME280;26591;43.264;26.940;2023-04-27T12:49:42;98803.09;;;14.55;48.31
40872;BME280;26591;43.264;26.940;2023-04-27T12:52:07;98805.16;;;14.60;48.82
40872;BME280;26591;43.264;26.940;2023-04-27T12:54:35;98803.75;;;15.19;47.45
40872;BME280;26591;43.264;26.940;2023-04-27T12:57:01;98808.91;;;15.41;46.80
40872;BME280;26591;43.264;26.940;2023-04-27T12:59:31;98800.28;;;15.32;47.74
40872;BME280;26591;43.264;26.940;2023-04-27T13:01:57;98804.53;;;15.06;46.62
40872;BME280;26591;43.264;26.940;2023-04-27T13:04:23;98800.06;;;15.20;47.22
40872;BME280;26591;43.264;26.940;2023-04-27T13:06:48;98801.59;;;14.88;47.23
40872;BME280;26591;43.264;26.940;2023-04-27T13:09:14;98802.72;;;14.65;46.99